Time;durP1;ratioP1;P1;durP2;ratioP2;P2;SDS_P1;SDS_P2;PMS_P1;PMS_P2;Temp;Humidity;BMP_temperature;BMP_pressure;BME280_temperature;BME280_humidity;BME280_pressure;Samples;Min_cycle;Max_cycle;Signal;HPM_P1;HPM_P2
2023/01/23 00:00:27;;;;;;;3.93;2.30;;;5.40;92.80;;;;;;5069490;28;20209;-63
2023/01/23 00:02:54;;;;;;;2.50;1.97;;;5.40;92.90;;;;;;5070256;28;20285;-62
2023/01/23 00:05:22;;;;;;;2.30;2.10;;;5.40;93.00;;;;;;5070717;28;20268;-62
2023/01/23 00:07:49;;;;;;;2.30;1.80;;;5.50;93.00;;;;;;5068437;28;20204;-62
2023/01/23 00:10:17;;;;;;;3.53;2.70;;;4.30;92.50;;;;;;5069116;28;20421;-63
2023/01/23 00:12:47;;;;;;;6.03;4.03;;;5.50;93.10;;;;;;5069416;28;20194;-61
2023/01/23 00:15:15;;;;;;;4.17;3.30;;;5.50;93.10;;;;;;5069032;28;20210;-62
2023/01/23 00:17:44;;;;;;;2.73;2.50;;;5.60;93.10;;;;;;5071507;28;20675;-62
2023/01/23 00:20:13;;;;;;;2.87;2.37;;;5.50;93.10;;;;;;5070748;28;20293;-62
2023/01/23 00:22:40;;;;;;;2.33;2.00;;;5.60;93.20;;;;;;5067799;28;20214;-62
2023/01/23 00:25:08;;;;;;;2.37;2.17;;;5.60;93.20;;;;;;5070744;28;20276;-63
2023/01/23 00:27:35;;;;;;;1.90;1.70;;;5.70;93.30;;;;;;5068301;28;20199;-63
2023/01/23 00:30:04;;;;;;;1.30;1.20;;;5.70;93.30;;;;;;5067313;28;20202;-63
2023/01/23 00:32:31;;;;;;;3.30;2.03;;;5.80;93.30;;;;;;5070426;28;20210;-62
2023/01/23 00:35:05;;;;;;;3.80;2.70;;;5.70;93.30;;;;;;5069341;28;20235;-63
2023/01/23 00:37:32;;;;;;;3.60;2.57;;;5.80;93.20;;;;;;5069644;28;20199;-62
2023/01/23 00:40:00;;;;;;;6.77;2.70;;;5.70;93.10;;;;;;5067887;28;20252;-63
2023/01/23 00:42:27;;;;;;;4.50;2.77;;;5.70;93.10;;;;;;5068521;28;20612;-62
2023/01/23 00:44:54;;;;;;;3.03;2.63;;;5.60;93.10;;;;;;5069878;28;20221;-61
2023/01/23 00:47:22;;;;;;;2.10;1.90;;;5.60;93.20;;;;;;5068342;28;20603;-62
2023/01/23 00:49:49;;;;;;;2.27;1.80;;;5.60;93.20;;;;;;5066950;28;20209;-62
2023/01/23 00:52:18;;;;;;;1.50;1.40;;;5.70;93.30;;;;;;5070614;28;20649;-63
2023/01/23 00:54:45;;;;;;;2.40;1.93;;;5.70;93.30;;;;;;5069268;28;20210;-62
2023/01/23 00:57:12;;;;;;;2.40;2.20;;;5.70;93.30;;;;;;5071735;28;20733;-63
2023/01/23 00:59:41;;;;;;;2.90;2.33;;;5.70;93.20;;;;;;5065069;28;20244;-63
2023/01/23 01:02:08;;;;;;;5.67;2.60;;;5.70;93.10;;;;;;5072600;28;20202;-62
2023/01/23 01:04:36;;;;;;;1.80;1.70;;;5.60;93.00;;;;;;5070016;28;20229;-62
2023/01/23 01:07:03;;;;;;;2.10;1.90;;;5.60;93.10;;;;;;5073709;28;20198;-61
2023/01/23 01:09:32;;;;;;;2.53;2.33;;;5.60;93.10;;;;;;5073044;28;20190;-63
2023/01/23 01:11:59;;;;;;;2.73;2.37;;;5.60;93.10;;;;;;5073086;28;20275;-62
2023/01/23 01:14:27;;;;;;;2.93;2.30;;;6.30;93.30;;;;;;5064702;28;20623;-62
2023/01/23 01:16:54;;;;;;;2.73;2.53;;;5.60;93.10;;;;;;5069709;28;20283;-63
2023/01/23 01:19:21;;;;;;;2.30;2.10;;;5.60;93.00;;;;;;5071452;28;20579;-63
2023/01/23 01:21:49;;;;;;;3.90;2.40;;;5.50;93.00;;;;;;5068999;28;20288;-62
2023/01/23 01:24:18;;;;;;;2.23;1.97;;;5.50;93.00;;;;;;5070184;28;20190;-63
2023/01/23 01:26:46;;;;;;;2.00;1.77;;;5.60;93.20;;;;;;5069573;28;20205;-63
2023/01/23 01:29:14;;;;;;;3.33;2.37;;;5.60;93.20;;;;;;5065710;28;20695;-62
2023/01/23 01:31:43;;;;;;;4.50;2.57;;;5.60;93.20;;;;;;5067940;28;20200;-62
2023/01/23 01:34:12;;;;;;;3.30;2.30;;;5.60;93.50;;;;;;5069740;28;20201;-62
2023/01/23 01:36:40;;;;;;;3.30;2.03;;;5.70;93.20;;;;;;5070753;28;20201;-62
2023/01/23 01:39:07;;;;;;;2.90;2.33;;;5.60;93.20;;;;;;5071747;28;20197;-63
2023/01/23 01:41:35;;;;;;;2.27;1.97;;;5.80;93.20;;;;;;5068611;28;20194;-62
2023/01/23 01:44:05;;;;;;;2.70;2.20;;;5.70;93.20;;;;;;5068572;28;20202;-61
2023/01/23 01:46:32;;;;;;;2.00;1.90;;;5.80;93.20;;;;;;5067258;28;20251;-62
2023/01/23 01:49:07;;;;;;;3.40;2.60;;;5.70;93.20;;;;;;5067446;28;20211;-62
2023/01/23 01:51:38;;;;;;;2.50;2.30;;;5.70;93.10;;;;;;5067230;28;20279;-64
2023/01/23 01:54:12;;;;;;;2.07;1.90;;;5.70;93.10;;;;;;5068074;28;20257;-62
2023/01/23 01:56:44;;;;;;;1.90;1.80;;;5.70;93.20;;;;;;5069687;28;20226;-63
2023/01/23 01:59:14;;;;;;;1.60;1.50;;;5.80;93.30;;;;;;5067161;28;20206;-62
2023/01/23 02:01:42;;;;;;;6.17;2.23;;;5.80;93.20;;;;;;5512875;22;20230;-63
2023/01/23 02:04:09;;;;;;;2.50;2.30;;;6.20;93.60;;;;;;5033797;28;20407;-62
2023/01/23 02:06:37;;;;;;;2.67;2.00;;;5.80;93.20;;;;;;5051685;28;20225;-62
2023/01/23 02:09:10;;;;;;;2.87;1.90;;;5.70;93.30;;;;;;5068633;28;20263;-63
2023/01/23 02:11:37;;;;;;;2.27;2.07;;;5.70;93.30;;;;;;5050331;28;20306;-62
2023/01/23 02:14:04;;;;;;;1.83;1.63;;;5.70;93.40;;;;;;5053128;28;20215;-63
2023/01/23 02:16:39;;;;;;;3.33;1.77;;;5.70;93.40;;;;;;5051806;28;20940;-62
2023/01/23 02:19:30;;;;;;;2.43;2.23;;;5.70;93.50;;;;;;5052373;28;20227;-62
2023/01/23 02:22:07;;;;;;;2.83;2.23;;;5.70;93.50;;;;;;5052959;28;20209;-61
2023/01/23 02:24:41;;;;;;;2.73;2.03;;;5.70;93.40;;;;;;5053295;28;20214;-62
2023/01/23 02:27:10;;;;;;;1.93;1.70;;;5.70;93.50;;;;;;5053232;28;20226;-63
2023/01/23 02:29:42;;;;;;;2.83;2.17;;;5.70;93.50;;;;;;5068064;28;20204;-63
2023/01/23 02:32:09;;;;;;;1.83;1.73;;;5.70;93.60;;;;;;5052011;28;20210;-61
2023/01/23 02:34:37;;;;;;;1.77;1.67;;;5.70;93.60;;;;;;5051855;28;20667;-62
2023/01/23 02:37:07;;;;;;;2.53;2.20;;;5.60;93.60;;;;;;5052318;28;20198;-63
2023/01/23 02:39:36;;;;;;;3.17;2.47;;;5.70;93.60;;;;;;5073646;28;20301;-61
2023/01/23 02:42:04;;;;;;;2.53;2.33;;;5.70;93.50;;;;;;5050975;28;20203;-63
2023/01/23 02:45:02;;;;;;;2.50;2.30;;;5.60;93.50;;;;;;5045936;28;20205;-62
2023/01/23 02:47:30;;;;;;;2.70;2.40;;;5.60;93.30;;;;;;5065533;28;20203;-62
2023/01/23 02:49:58;;;;;;;1.70;1.60;;;5.50;93.30;;;;;;5051436;28;20853;-62
2023/01/23 02:52:25;;;;;;;1.77;1.67;;;5.50;93.40;;;;;;5054438;28;20220;-62
2023/01/23 02:54:52;;;;;;;2.40;2.10;;;5.60;93.50;;;;;;5057675;28;20229;-62
2023/01/23 02:57:19;;;;;;;1.93;1.50;;;5.60;93.50;;;;;;5056681;28;20201;-64
2023/01/23 03:02:37;;;;;;;3.10;2.30;;;5.60;93.50;;;;;;5063825;28;20363;-63
2023/01/23 03:05:04;;;;;;;2.20;1.60;;;5.60;93.50;;;;;;5086430;28;20189;-62
2023/01/23 03:07:32;;;;;;;1.70;1.60;;;5.60;93.50;;;;;;5078413;28;20224;-62
2023/01/23 03:09:59;;;;;;;2.73;2.47;;;5.60;93.60;;;;;;5078406;28;20192;-63
2023/01/23 03:12:26;;;;;;;1.90;1.80;;;5.70;93.50;;;;;;5086454;28;20232;-62
2023/01/23 03:14:55;;;;;;;2.13;1.90;;;5.60;93.50;;;;;;5083852;28;20316;-62
2023/01/23 03:17:22;;;;;;;1.67;1.57;;;5.60;93.50;;;;;;5071747;28;20197;-62
2023/01/23 03:19:51;;;;;;;2.27;2.07;;;5.70;93.60;;;;;;5078467;28;20308;-63
2023/01/23 03:22:18;;;;;;;2.60;2.40;;;5.70;93.60;;;;;;5079118;28;20299;-63
2023/01/23 03:24:46;;;;;;;1.97;1.87;;;5.70;93.50;;;;;;5094105;28;20208;-63
2023/01/23 03:27:13;;;;;;;1.80;1.70;;;5.70;93.60;;;;;;5084629;28;20765;-63
2023/01/23 03:32:30;;;;;;;1.87;1.77;;;5.70;93.70;;;;;;5070512;28;20190;-61
2023/01/23 03:34:59;;;;;;;2.63;1.70;;;5.70;93.60;;;;;;5064950;28;20214;-62
2023/01/23 03:37:26;;;;;;;2.10;2.00;;;5.70;93.60;;;;;;5085636;28;20224;-62
2023/01/23 03:42:39;;;;;;;2.77;2.53;;;5.70;93.70;;;;;;5083566;28;20299;-62
2023/01/23 03:45:10;;;;;;;5.03;3.00;;;5.70;93.60;;;;;;5074789;28;20189;-62
2023/01/23 03:47:37;;;;;;;2.70;2.30;;;5.60;93.80;;;;;;5082309;28;20619;-62
2023/01/23 03:50:09;;;;;;;2.57;2.37;;;5.60;93.60;;;;;;5077893;28;20194;-62
2023/01/23 03:52:39;;;;;;;2.70;2.50;;;5.60;93.60;;;;;;5069775;28;20665;-62
2023/01/23 03:55:07;;;;;;;2.27;2.07;;;5.60;93.70;;;;;;5073058;28;20323;-62
2023/01/23 03:57:34;;;;;;;2.53;2.33;;;5.60;93.70;;;;;;5100963;27;20205;-62
2023/01/23 04:00:24;;;;;;;2.87;2.57;;;5.60;93.70;;;;;;5097841;27;20197;-62
2023/01/23 04:03:02;;;;;;;2.20;2.00;;;5.60;93.70;;;;;;5071753;28;20242;-61
2023/01/23 04:05:31;;;;;;;2.60;2.40;;;5.60;93.80;;;;;;5068794;28;20294;-61
2023/01/23 04:07:59;;;;;;;3.23;2.33;;;5.60;93.70;;;;;;5070977;28;20277;-62
2023/01/23 04:10:27;;;;;;;2.37;2.17;;;5.60;93.80;;;;;;5085116;28;20193;-62
2023/01/23 04:12:58;;;;;;;2.57;2.37;;;5.60;93.80;;;;;;5084077;27;20197;-62
2023/01/23 04:15:26;;;;;;;2.73;1.90;;;5.70;93.90;;;;;;5082592;28;20223;-62
2023/01/23 04:17:56;;;;;;;2.73;2.40;;;5.70;93.90;;;;;;5076710;28;21572;-62
2023/01/23 04:20:25;;;;;;;4.10;2.30;;;5.70;93.90;;;;;;5068561;28;20229;-62
2023/01/23 04:22:55;;;;;;;3.73;2.23;;;5.70;93.80;;;;;;5072052;28;20206;-62
2023/01/23 04:25:23;;;;;;;6.00;3.57;;;5.80;93.90;;;;;;5072622;28;21017;-61
2023/01/23 04:27:50;;;;;;;4.83;3.70;;;5.70;93.80;;;;;;5078343;28;20301;-62
2023/01/23 04:30:18;;;;;;;4.07;3.60;;;5.70;93.70;;;;;;5081425;28;20205;-61
2023/01/23 04:32:45;;;;;;;3.90;3.30;;;5.70;93.80;;;;;;5070261;28;20606;-62
2023/01/23 04:35:14;;;;;;;3.40;3.10;;;5.70;93.80;;;;;;5069630;28;20773;-63
2023/01/23 04:37:42;;;;;;;2.70;2.50;;;5.60;93.70;;;;;;5084701;28;20288;-62
2023/01/23 04:40:12;;;;;;;3.10;2.40;;;5.60;93.80;;;;;;5086716;27;20202;-62
2023/01/23 04:42:50;;;;;;;2.10;1.90;;;5.60;93.80;;;;;;5089510;27;20200;-63
2023/01/23 04:45:28;;;;;;;2.10;2.00;;;5.60;93.90;;;;;;5074056;28;20195;-62
2023/01/23 04:48:28;;;;;;;1.93;1.80;;;5.60;93.90;;;;;;5053832;28;20422;-62
2023/01/23 04:50:55;;;;;;;2.83;2.53;;;5.60;93.80;;;;;;5098863;27;20197;-61
2023/01/23 04:53:23;;;;;;;3.60;3.20;;;5.60;93.80;;;;;;5096758;27;20201;-62
2023/01/23 04:55:58;;;;;;;2.43;2.23;;;5.60;93.70;;;;;;5076706;28;20227;-63
2023/01/23 04:58:26;;;;;;;2.37;2.17;;;5.60;94.10;;;;;;5069639;27;20244;-61
2023/01/23 05:01:02;;;;;;;2.27;2.07;;;5.60;93.70;;;;;;5073441;28;20329;-62
2023/01/23 05:03:33;;;;;;;2.20;2.00;;;5.50;93.70;;;;;;5088002;28;20229;-63
2023/01/23 05:06:01;;;;;;;1.80;1.70;;;5.60;93.80;;;;;;5064875;28;20192;-62
2023/01/23 05:08:28;;;;;;;2.50;2.23;;;5.60;93.80;;;;;;5077484;28;20209;-61
2023/01/23 05:11:12;;;;;;;2.47;2.20;;;5.60;93.80;;;;;;5101622;27;20194;-62
2023/01/23 05:13:39;;;;;;;2.83;2.20;;;5.60;93.90;;;;;;5075980;28;20284;-62
2023/01/23 05:16:07;;;;;;;2.23;2.03;;;5.60;93.90;;;;;;5086889;28;20208;-62
2023/01/23 05:18:53;;;;;;;2.40;2.20;;;5.60;93.80;;;;;;5068970;28;20206;-63
2023/01/23 05:21:20;;;;;;;5.63;2.90;;;5.70;93.90;;;;;;5066661;28;20209;-62
2023/01/23 05:23:48;;;;;;;1.90;1.80;;;5.70;93.90;;;;;;5087689;28;20564;-62
2023/01/23 05:26:18;;;;;;;2.70;2.27;;;5.70;93.90;;;;;;5073926;27;20191;-61
2023/01/23 05:28:46;;;;;;;4.40;3.43;;;5.70;93.90;;;;;;5078469;28;20206;-63
2023/01/23 05:31:13;;;;;;;3.53;3.10;;;5.70;93.90;;;;;;5083378;27;20246;-62
2023/01/23 05:33:48;;;;;;;4.23;3.10;;;5.70;93.90;;;;;;5074675;28;21436;-62
2023/01/23 05:36:16;;;;;;;4.37;3.10;;;5.70;93.90;;;;;;5087302;27;20900;-62
2023/01/23 05:38:43;;;;;;;7.03;3.83;;;5.70;93.90;;;;;;5084115;28;20312;-62
2023/01/23 05:41:10;;;;;;;4.53;3.10;;;5.70;93.90;;;;;;5069717;28;20590;-61
2023/01/23 05:44:11;;;;;;;4.77;3.27;;;5.70;93.90;;;;;;5069665;28;20271;-62
2023/01/23 05:46:58;;;;;;;3.10;2.80;;;5.70;93.80;;;;;;5083088;28;20253;-63
2023/01/23 05:49:26;;;;;;;4.33;3.07;;;5.70;93.80;;;;;;5073626;28;20205;-62
2023/01/23 05:51:53;;;;;;;2.70;2.50;;;5.70;93.80;;;;;;5067573;28;20573;-62
2023/01/23 05:54:20;;;;;;;2.40;2.20;;;5.70;93.90;;;;;;5098432;27;20280;-62
2023/01/23 05:56:47;;;;;;;2.00;1.90;;;5.70;93.90;;;;;;5083278;28;20320;-62
2023/01/23 05:59:34;;;;;;;2.97;2.20;;;5.80;93.80;;;;;;5095121;28;20758;-60
2023/01/23 06:02:40;;;;;;;2.60;2.13;;;5.80;93.80;;;;;;5023301;28;20301;-62
2023/01/23 06:05:41;;;;;;;2.30;1.80;;;6.50;94.00;;;;;;5011477;28;20942;-61
2023/01/23 06:08:15;;;;;;;1.50;1.40;;;5.80;93.90;;;;;;5048658;28;20202;-62
2023/01/23 06:10:43;;;;;;;2.00;1.80;;;5.80;93.70;;;;;;5063437;28;20210;-62
2023/01/23 06:13:10;;;;;;;4.03;2.57;;;5.80;93.60;;;;;;5053007;28;20203;-62
2023/01/23 06:15:39;;;;;;;4.33;2.70;;;5.80;93.40;;;;;;5058342;28;20213;-62
2023/01/23 06:18:11;;;;;;;2.80;2.10;;;5.80;93.50;;;;;;5051839;28;20284;-62
2023/01/23 06:20:38;;;;;;;2.20;2.00;;;5.80;93.50;;;;;;5045121;28;20223;-63
2023/01/23 06:23:05;;;;;;;2.40;2.10;;;5.80;93.40;;;;;;5050677;28;20211;-62
2023/01/23 06:25:33;;;;;;;2.93;2.40;;;5.80;93.40;;;;;;5049756;28;20620;-61
2023/01/23 06:28:04;;;;;;;2.50;1.80;;;5.80;93.50;;;;;;5049790;28;20264;-62
2023/01/23 06:30:32;;;;;;;3.50;2.73;;;5.80;93.40;;;;;;5051699;28;20213;-62
2023/01/23 06:33:01;;;;;;;2.83;2.00;;;5.80;93.40;;;;;;5056105;28;20203;-62
2023/01/23 06:35:37;;;;;;;4.47;3.10;;;5.80;93.50;;;;;;5048377;28;20207;-62
2023/01/23 06:38:06;;;;;;;5.20;3.00;;;5.70;93.30;;;;;;5051393;28;20195;-61
2023/01/23 06:40:33;;;;;;;4.20;2.73;;;4.40;92.60;;;;;;5043447;28;20214;-62
2023/01/23 06:43:26;;;;;;;3.07;2.60;;;5.70;93.20;;;;;;5045352;28;20307;-62
2023/01/23 06:45:54;;;;;;;3.30;2.77;;;5.70;93.20;;;;;;5048863;28;20305;-62
2023/01/23 06:48:22;;;;;;;3.17;2.87;;;5.70;93.10;;;;;;5051984;28;20198;-62
2023/01/23 06:50:51;;;;;;;3.43;2.97;;;5.70;93.00;;;;;;5055364;28;20194;-62
2023/01/23 06:53:19;;;;;;;3.37;3.07;;;5.70;93.00;;;;;;5055041;28;20281;-62
2023/01/23 06:55:49;;;;;;;5.47;3.03;;;5.60;92.70;;;;;;5049187;28;20583;-62
2023/01/23 06:58:17;;;;;;;2.60;2.40;;;5.60;92.50;;;;;;5051778;28;20221;-63
2023/01/23 07:00:45;;;;;;;2.40;2.20;;;5.50;92.60;;;;;;5041872;28;20193;-62
2023/01/23 07:03:29;;;;;;;2.30;2.10;;;5.60;92.70;;;;;;5064104;28;20309;-62
2023/01/23 07:06:02;;;;;;;2.23;2.00;;;5.60;92.60;;;;;;5061986;28;20750;-62
2023/01/23 07:08:29;;;;;;;2.33;2.13;;;5.60;92.60;;;;;;5069049;28;20247;-62
2023/01/23 07:10:56;;;;;;;2.53;2.23;;;5.60;92.60;;;;;;5062688;28;20612;-61
2023/01/23 07:13:23;;;;;;;2.10;1.90;;;5.60;92.60;;;;;;5063515;28;21410;-62
2023/01/23 07:15:52;;;;;;;2.63;2.10;;;5.70;92.70;;;;;;5061725;28;20228;-61
2023/01/23 07:18:19;;;;;;;2.07;1.97;;;5.70;92.70;;;;;;5061487;28;20260;-63
2023/01/23 07:20:48;;;;;;;1.90;1.73;;;4.80;92.30;;;;;;5067649;28;20565;-63
2023/01/23 07:23:16;;;;;;;2.80;1.60;;;5.70;92.70;;;;;;5073387;28;20203;-61
2023/01/23 07:25:43;;;;;;;1.57;1.47;;;5.80;92.70;;;;;;5081768;28;20203;-62
2023/01/23 07:28:10;;;;;;;2.27;1.90;;;5.80;92.70;;;;;;5074021;28;20190;-62
2023/01/23 07:30:37;;;;;;;2.33;1.80;;;5.80;92.50;;;;;;5069369;28;20225;-62
2023/01/23 07:33:05;;;;;;;6.30;3.80;;;5.90;92.50;;;;;;5069406;28;20873;-62
2023/01/23 07:35:32;;;;;;;7.70;3.73;;;5.90;92.30;;;;;;5070031;28;20200;-63
2023/01/23 07:38:01;;;;;;;6.20;3.23;;;5.80;92.10;;;;;;5081865;28;21087;-62
2023/01/23 07:40:28;;;;;;;3.07;2.77;;;5.80;92.10;;;;;;5079352;28;20692;-61
2023/01/23 07:42:57;;;;;;;5.60;2.70;;;5.80;92.10;;;;;;5068984;28;20202;-62
2023/01/23 07:45:24;;;;;;;2.33;2.13;;;5.80;92.20;;;;;;5066914;28;20201;-61
2023/01/23 07:47:51;;;;;;;2.90;2.10;;;5.80;92.30;;;;;;5068054;28;20233;-62
2023/01/23 07:50:18;;;;;;;2.50;2.30;;;5.80;92.40;;;;;;5068969;28;20190;-62
2023/01/23 07:52:45;;;;;;;2.50;2.30;;;5.80;92.30;;;;;;5063637;28;20287;-62
2023/01/23 07:55:14;;;;;;;2.37;1.97;;;5.80;92.30;;;;;;5061663;28;20202;-62
2023/01/23 07:57:41;;;;;;;4.03;2.23;;;5.80;92.30;;;;;;5064780;28;20217;-62
2023/01/23 08:00:10;;;;;;;1.83;1.73;;;5.80;92.30;;;;;;5064978;28;20251;-62
2023/01/23 08:02:40;;;;;;;2.03;1.87;;;5.90;92.40;;;;;;5073652;28;20227;-62
2023/01/23 08:05:08;;;;;;;2.60;2.23;;;5.90;92.40;;;;;;5088714;27;20687;-62
2023/01/23 08:07:35;;;;;;;2.37;1.83;;;5.90;92.30;;;;;;5102793;27;20303;-62
2023/01/23 08:10:04;;;;;;;3.90;2.50;;;5.90;92.40;;;;;;5096356;27;20676;-61
2023/01/23 08:12:33;;;;;;;2.87;2.20;;;5.90;92.30;;;;;;5087225;27;20200;-62
2023/01/23 08:15:00;;;;;;;3.00;1.60;;;5.90;92.40;;;;;;5087290;28;20283;-62
2023/01/23 08:17:27;;;;;;;2.93;2.30;;;5.90;92.40;;;;;;5087925;28;20206;-62
2023/01/23 08:19:54;;;;;;;3.80;2.10;;;5.90;92.40;;;;;;5085495;27;20230;-62
2023/01/23 08:22:21;;;;;;;3.50;2.37;;;5.90;92.40;;;;;;5085653;28;20676;-62
2023/01/23 08:24:48;;;;;;;3.03;2.10;;;5.90;92.50;;;;;;5086098;28;20521;-62
2023/01/23 08:27:15;;;;;;;3.80;2.40;;;5.90;92.50;;;;;;5084213;28;20186;-62
2023/01/23 08:29:44;;;;;;;3.17;2.60;;;5.90;92.40;;;;;;5083247;28;20227;-62
2023/01/23 08:32:11;;;;;;;6.13;3.60;;;5.90;92.50;;;;;;5081235;28;20270;-62
2023/01/23 08:34:39;;;;;;;5.07;3.20;;;5.90;92.40;;;;;;5087721;28;20207;-61
2023/01/23 08:37:06;;;;;;;4.47;3.13;;;5.80;92.30;;;;;;5085284;28;20209;-61
2023/01/23 08:39:34;;;;;;;3.97;3.00;;;5.90;92.50;;;;;;5072646;28;20201;-61
2023/01/23 08:42:01;;;;;;;4.03;2.60;;;5.90;92.40;;;;;;5089546;27;20688;-61
2023/01/23 08:44:30;;;;;;;2.80;2.10;;;5.90;92.40;;;;;;5097957;27;20198;-62
2023/01/23 08:46:58;;;;;;;3.97;2.70;;;6.00;92.50;;;;;;5092034;27;20198;-62
2023/01/23 08:49:26;;;;;;;6.30;3.60;;;6.00;92.40;;;;;;5084589;27;20201;-61
2023/01/23 08:51:53;;;;;;;5.23;3.73;;;6.00;92.30;;;;;;5086298;28;20202;-61
2023/01/23 08:54:20;;;;;;;5.13;3.47;;;5.90;92.10;;;;;;5082242;28;20207;-61
2023/01/23 08:56:47;;;;;;;3.37;2.73;;;5.90;92.00;;;;;;5091865;28;20225;-60
2023/01/23 08:59:14;;;;;;;4.47;3.13;;;5.90;92.00;;;;;;5097419;27;20201;-63
2023/01/23 09:01:41;;;;;;;2.73;2.53;;;5.90;92.10;;;;;;5090154;28;20190;-61
2023/01/23 09:04:10;;;;;;;2.63;2.20;;;5.90;92.00;;;;;;5085547;28;20261;-62
2023/01/23 09:06:37;;;;;;;1.90;1.80;;;5.90;92.00;;;;;;5083221;28;20197;-62
2023/01/23 09:09:05;;;;;;;2.30;2.10;;;5.90;92.00;;;;;;5081447;28;20197;-62
2023/01/23 09:11:32;;;;;;;2.83;2.47;;;5.90;92.00;;;;;;5085575;28;20200;-62
2023/01/23 09:13:59;;;;;;;2.93;2.37;;;5.90;92.00;;;;;;5101533;27;20209;-62
2023/01/23 09:16:26;;;;;;;3.57;2.97;;;5.90;92.00;;;;;;5098403;27;20216;-62
2023/01/23 09:18:55;;;;;;;5.47;2.93;;;5.90;92.00;;;;;;5094289;27;20271;-61
2023/01/23 09:21:24;;;;;;;2.50;2.30;;;5.90;92.00;;;;;;5084224;28;20200;-61
2023/01/23 09:23:51;;;;;;;2.77;2.57;;;5.90;92.10;;;;;;5080728;27;20197;-62
2023/01/23 09:26:18;;;;;;;3.83;2.53;;;6.00;92.10;;;;;;5084216;27;20205;-62
2023/01/23 09:28:45;;;;;;;6.47;3.27;;;5.90;92.10;;;;;;5082530;28;20193;-62
2023/01/23 09:31:13;;;;;;;4.70;2.80;;;5.90;92.00;;;;;;5086230;27;20185;-62
2023/01/23 09:33:41;;;;;;;7.17;3.20;;;6.00;92.10;;;;;;5101777;27;20198;-60
2023/01/23 09:36:09;;;;;;;6.63;3.30;;;5.90;92.00;;;;;;5094771;27;20192;-62
2023/01/23 09:38:37;;;;;;;5.43;2.90;;;5.90;91.90;;;;;;5091613;27;20864;-61
2023/01/23 09:41:10;;;;;;;3.17;2.87;;;5.90;92.00;;;;;;5085504;27;20188;-61
2023/01/23 09:43:44;;;;;;;2.93;2.60;;;5.90;92.10;;;;;;5084160;27;20196;-61
2023/01/23 09:46:20;;;;;;;2.60;2.13;;;5.90;92.10;;;;;;5083379;28;20299;-61
2023/01/23 09:48:50;;;;;;;8.10;3.30;;;5.90;92.10;;;;;;5085130;28;20228;-62
2023/01/23 09:51:24;;;;;;;6.53;2.77;;;5.90;92.10;;;;;;5065891;28;20206;-61
2023/01/23 09:53:55;;;;;;;5.40;3.07;;;5.90;92.20;;;;;;5084321;28;20198;-62
2023/01/23 09:56:30;;;;;;;4.90;3.27;;;5.90;92.20;;;;;;5088988;28;20208;-61
2023/01/23 09:59:08;;;;;;;3.70;3.07;;;5.90;92.00;;;;;;5093898;27;20199;-62
2023/01/23 10:01:37;;;;;;;2.40;2.20;;;6.00;92.10;;;;;;5091489;28;20209;-61
2023/01/23 10:04:05;;;;;;;3.27;2.10;;;6.00;92.10;;;;;;5084173;27;20218;-61
2023/01/23 10:06:46;;;;;;;2.33;1.70;;;6.00;92.00;;;;;;5085937;28;20190;-61
2023/01/23 10:09:33;;;;;;;2.40;1.90;;;6.00;91.90;;;;;;5085379;28;20435;-62
2023/01/23 10:12:09;;;;;;;4.50;2.80;;;6.00;91.90;;;;;;5084118;27;20297;-62
2023/01/23 10:14:53;;;;;;;2.83;2.43;;;6.00;91.80;;;;;;5086403;28;20185;-62
2023/01/23 10:17:29;;;;;;;2.47;2.20;;;5.90;91.70;;;;;;5083841;28;20206;-62
2023/01/23 10:20:13;;;;;;;3.33;2.47;;;5.90;91.70;;;;;;5084355;27;20328;-61
2023/01/23 10:22:47;;;;;;;2.87;2.53;;;5.90;91.70;;;;;;5091103;27;20190;-61
2023/01/23 10:25:20;;;;;;;2.60;2.27;;;5.90;91.60;;;;;;5097657;27;20212;-61
2023/01/23 10:27:49;;;;;;;3.80;3.00;;;5.90;91.60;;;;;;5097088;28;20185;-62
2023/01/23 10:30:27;;;;;;;4.43;4.00;;;6.00;91.70;;;;;;5085108;28;20210;-61
2023/01/23 10:32:57;;;;;;;4.83;4.13;;;5.90;91.50;;;;;;5083830;28;20200;-61
2023/01/23 10:35:32;;;;;;;4.67;4.10;;;5.90;91.50;;;;;;5095666;28;20257;-62
2023/01/23 10:38:05;;;;;;;3.80;3.33;;;5.90;91.50;;;;;;5081737;28;20889;-61
2023/01/23 10:43:20;;;;;;;2.30;2.10;;;5.90;91.50;;;;;;5083387;28;20220;-62
2023/01/23 10:45:49;;;;;;;2.83;2.63;;;5.90;91.50;;;;;;5085168;28;20251;-62
2023/01/23 10:48:41;;;;;;;3.20;2.90;;;5.90;91.50;;;;;;5081047;28;20201;-62
2023/01/23 10:51:34;;;;;;;3.20;2.63;;;5.80;91.40;;;;;;5088486;28;20189;-61
2023/01/23 10:54:13;;;;;;;2.20;1.90;;;5.80;91.50;;;;;;5093549;28;20283;-62
2023/01/23 10:56:51;;;;;;;2.13;1.93;;;5.90;91.60;;;;;;5094830;28;20206;-62
2023/01/23 10:59:31;;;;;;;2.27;2.07;;;6.10;91.70;;;;;;5083719;28;20200;-62
2023/01/23 11:02:02;;;;;;;2.07;1.93;;;5.90;91.60;;;;;;5080868;28;20219;-62
2023/01/23 11:04:33;;;;;;;2.40;1.80;;;5.90;91.60;;;;;;5084057;28;20260;-62
2023/01/23 11:07:04;;;;;;;1.70;1.60;;;6.00;91.70;;;;;;5084785;28;20240;-63
2023/01/23 11:09:32;;;;;;;2.30;1.73;;;5.90;91.60;;;;;;5085568;28;20209;-61
2023/01/23 11:12:02;;;;;;;2.00;1.60;;;5.90;91.60;;;;;;5085260;28;20196;-62
2023/01/23 11:14:30;;;;;;;2.50;2.30;;;6.00;91.70;;;;;;5084208;28;20186;-62
2023/01/23 11:17:02;;;;;;;2.20;2.00;;;5.90;91.60;;;;;;5084557;28;20234;-62
2023/01/23 11:19:33;;;;;;;3.53;2.60;;;5.90;91.70;;;;;;5084212;28;20194;-62
2023/01/23 11:22:01;;;;;;;7.03;3.87;;;5.90;91.60;;;;;;5084815;28;20196;-62
2023/01/23 11:24:34;;;;;;;6.73;4.43;;;5.90;91.60;;;;;;5089374;28;20198;-62
2023/01/23 11:27:05;;;;;;;6.87;4.00;;;5.90;91.70;;;;;;5094272;28;20191;-62
2023/01/23 11:29:53;;;;;;;5.50;4.40;;;5.90;91.70;;;;;;5094062;28;20216;-62
2023/01/23 11:32:21;;;;;;;5.23;3.57;;;5.90;91.60;;;;;;5082316;28;20304;-62
2023/01/23 11:34:52;;;;;;;4.47;3.00;;;5.90;91.60;;;;;;5084053;28;20578;-61
2023/01/23 11:37:23;;;;;;;3.10;2.80;;;5.90;91.60;;;;;;5085368;28;20209;-61
2023/01/23 11:39:56;;;;;;;3.00;2.67;;;5.90;91.50;;;;;;5084143;28;20291;-61
2023/01/23 11:42:27;;;;;;;2.30;2.10;;;5.90;91.60;;;;;;5085414;28;20653;-61
2023/01/23 11:44:56;;;;;;;3.77;2.27;;;5.90;91.60;;;;;;5084538;28;20187;-62
2023/01/23 11:47:46;;;;;;;2.57;2.37;;;6.00;91.60;;;;;;5084493;28;20198;-63
2023/01/23 11:50:23;;;;;;;4.27;3.13;;;6.00;91.50;;;;;;5083785;28;20986;-62
2023/01/23 11:53:00;;;;;;;4.97;3.10;;;6.00;91.30;;;;;;5066654;28;20199;-61
2023/01/23 11:55:47;;;;;;;4.60;3.00;;;6.00;91.20;;;;;;5083669;28;20190;-62
2023/01/23 11:58:29;;;;;;;2.47;2.27;;;5.90;91.20;;;;;;5082357;28;20206;-62
2023/01/23 12:01:05;;;;;;;4.57;3.43;;;5.90;91.30;;;;;;5071786;28;20202;-62
2023/01/23 12:04:17;;;;;;;5.47;3.37;;;5.90;91.30;;;;;;5082539;28;20303;-62
2023/01/23 12:07:16;;;;;;;2.73;2.43;;;5.90;91.30;;;;;;5073559;27;20700;-61
2023/01/23 12:09:52;;;;;;;2.33;2.13;;;5.90;91.30;;;;;;5091246;28;20203;-61
2023/01/23 12:12:32;;;;;;;2.00;1.90;;;5.90;91.30;;;;;;5096502;27;20229;-62
2023/01/23 12:15:05;;;;;;;2.30;2.10;;;6.00;91.40;;;;;;5087052;27;20213;-61
2023/01/23 12:17:42;;;;;;;2.97;2.67;;;6.00;91.40;;;;;;5086674;27;20201;-61
2023/01/23 12:20:25;;;;;;;6.23;4.20;;;6.00;91.20;;;;;;5086310;27;20214;-61
2023/01/23 12:23:29;;;;;;;4.77;3.47;;;6.00;91.50;;;;;;5087193;27;20188;-62
2023/01/23 12:26:06;;;;;;;4.30;3.13;;;6.00;91.20;;;;;;5086955;28;20679;-61
2023/01/23 12:29:10;;;;;;;3.83;2.97;;;6.00;91.30;;;;;;5085189;28;20191;-62
2023/01/23 12:31:51;;;;;;;2.67;2.47;;;6.00;91.30;;;;;;5088781;28;20192;-62
2023/01/23 12:34:36;;;;;;;2.30;2.10;;;6.00;91.30;;;;;;5086202;28;20197;-62
2023/01/23 12:37:18;;;;;;;2.13;1.80;;;6.00;91.20;;;;;;5096600;27;20216;-61
2023/01/23 12:39:59;;;;;;;2.03;1.90;;;5.90;91.20;;;;;;5098986;27;20554;-62
2023/01/23 12:42:31;;;;;;;1.70;1.60;;;6.00;91.30;;;;;;5097154;27;20201;-62
2023/01/23 12:45:06;;;;;;;1.93;1.70;;;6.00;91.50;;;;;;5088463;28;20199;-62
2023/01/23 12:47:41;;;;;;;1.60;1.47;;;6.00;91.20;;;;;;5084408;27;20193;-63
2023/01/23 12:50:19;;;;;;;1.60;1.50;;;6.00;91.20;;;;;;5084700;28;20644;-62
2023/01/23 12:52:50;;;;;;;1.57;1.47;;;6.00;91.20;;;;;;5085699;28;20194;-61
2023/01/23 12:55:21;;;;;;;2.80;1.60;;;6.00;91.30;;;;;;5074163;28;20207;-61
2023/01/23 12:57:53;;;;;;;1.60;1.50;;;6.10;91.30;;;;;;5092942;28;20194;-60
2023/01/23 13:00:38;;;;;;;1.60;1.50;;;6.10;91.30;;;;;;5096595;28;20186;-61
2023/01/23 13:03:28;;;;;;;1.60;1.50;;;6.00;91.20;;;;;;5090390;28;20260;-61
2023/01/23 13:06:05;;;;;;;2.60;2.00;;;6.00;91.20;;;;;;5085463;28;20217;-61
2023/01/23 13:08:37;;;;;;;1.70;1.60;;;6.00;91.10;;;;;;5085824;28;20196;-61
2023/01/23 13:13:55;;;;;;;2.70;1.80;;;5.90;91.10;;;;;;5089358;27;20193;-62
2023/01/23 13:16:28;;;;;;;1.83;1.53;;;5.90;91.10;;;;;;5092007;28;20204;-61
2023/01/23 13:22:04;;;;;;;1.97;1.70;;;5.90;91.20;;;;;;5074007;28;20300;-62
2023/01/23 13:27:39;;;;;;;2.07;1.70;;;5.90;91.40;;;;;;5073982;28;20556;-61
2023/01/23 13:30:40;;;;;;;2.60;2.20;;;6.00;91.40;;;;;;5094007;27;20206;-62
2023/01/23 13:33:52;;;;;;;2.90;2.40;;;6.00;91.20;;;;;;5098446;27;20182;-62
2023/01/23 13:36:27;;;;;;;8.60;3.77;;;6.00;91.00;;;;;;5037040;28;20199;-62
2023/01/23 13:39:20;;;;;;;4.77;3.30;;;6.00;91.00;;;;;;5086708;28;20209;-62
2023/01/23 13:41:49;;;;;;;6.23;3.37;;;5.90;91.00;;;;;;5083480;28;20217;-62